Time;durP1;ratioP1;P1;durP2;ratioP2;P2;SDS_P1;SDS_P2;PMS_P1;PMS_P2;Temp;Humidity;BMP_temperature;BMP_pressure;BME280_temperature;BME280_humidity;BME280_pressure;Samples;Min_cycle;Max_cycle;Signal;HPM_P1;HPM_P2
2022/06/28 00:02:07;;;;;;;8.65;4.78;;;;;;;11.62;100.00;101057.59;5067794;28;20034;-70
2022/06/28 00:04:32;;;;;;;7.78;4.88;;;;;;;11.61;100.00;101069.91;5079208;28;20025;-70
2022/06/28 00:06:58;;;;;;;8.68;5.13;;;;;;;11.61;100.00;101069.03;5087569;28;20043;-70
2022/06/28 00:09:24;;;;;;;7.43;5.35;;;;;;;11.57;100.00;101062.19;5073861;28;20425;-71
2022/06/28 00:11:50;;;;;;;4.63;3.92;;;;;;;11.44;100.00;101047.88;5051794;28;20056;-71
2022/06/28 00:17:00;;;;;;;6.45;4.47;;;;;;;11.42;100.00;101065.50;5091985;28;20031;-70
2022/06/28 00:19:25;;;;;;;8.32;5.10;;;;;;;11.20;100.00;101037.47;5065671;28;20390;-70
2022/06/28 00:21:51;;;;;;;6.75;4.55;;;;;;;11.21;100.00;101047.09;5079386;28;21394;-70
2022/06/28 00:24:16;;;;;;;6.10;5.10;;;;;;;11.31;100.00;101052.81;5084733;28;20459;-71
2022/06/28 00:26:42;;;;;;;6.55;5.13;;;;;;;11.38;100.00;101066.56;5087184;28;20114;-70
2022/06/28 00:29:08;;;;;;;6.93;5.20;;;;;;;11.33;100.00;101064.09;5055018;28;20395;-71
2022/06/28 00:31:34;;;;;;;8.73;6.40;;;;;;;11.33;100.00;101068.50;5060119;28;20024;-71
2022/06/28 00:33:59;;;;;;;10.30;6.20;;;;;;;11.26;100.00;101060.88;5066373;28;20077;-71
2022/06/28 00:36:25;;;;;;;9.35;5.93;;;;;;;11.20;100.00;101041.88;5074804;28;20458;-70
2022/06/28 00:38:50;;;;;;;6.93;5.53;;;;;;;11.34;100.00;101065.81;5088029;28;20016;-72
2022/06/28 00:41:16;;;;;;;14.48;6.78;;;;;;;11.34;100.00;101070.22;5073172;28;20417;-71
2022/06/28 00:43:42;;;;;;;10.00;6.30;;;;;;;11.33;100.00;101079.03;5080505;28;20063;-71
2022/06/28 00:46:08;;;;;;;9.13;6.68;;;;;;;11.25;100.00;101053.91;5069374;28;20024;-70
2022/06/28 00:48:34;;;;;;;7.20;6.22;;;;;;;11.29;100.00;101059.88;5075184;28;20030;-71
2022/06/28 00:51:01;;;;;;;7.90;6.25;;;;;;;11.29;100.00;101073.91;5089601;28;20023;-70
2022/06/28 00:53:26;;;;;;;13.88;7.15;;;;;;;11.20;100.00;101068.19;5073596;28;20074;-71
2022/06/28 00:55:51;;;;;;;10.25;7.07;;;;;;;10.78;100.00;100997.22;5062983;28;20032;-70
2022/06/28 00:58:17;;;;;;;11.38;6.18;;;;;;;11.19;100.00;101072.59;5078270;28;20024;-71
2022/06/28 01:00:45;;;;;;;9.05;6.60;;;;;;;11.21;100.00;101076.03;5063683;28;20067;-71
2022/06/28 01:03:13;;;;;;;10.38;6.30;;;;;;;11.20;100.00;101079.56;5072608;28;20016;-70
2022/06/28 01:05:40;;;;;;;11.82;6.10;;;;;;;11.18;100.00;101080.56;5064215;28;20039;-70
2022/06/28 01:08:06;;;;;;;7.53;6.15;;;;;;;11.16;100.00;101080.59;5051725;28;20092;-70
2022/06/28 01:10:32;;;;;;;8.27;6.18;;;;;;;11.14;100.00;101079.81;5048249;28;20459;-70
2022/06/28 01:12:57;;;;;;;7.22;5.18;;;;;;;11.00;100.00;101068.16;5040996;28;20029;-70
2022/06/28 01:15:22;;;;;;;9.00;5.70;;;;;;;11.04;100.00;101086.38;5052931;28;20031;-71
2022/06/28 01:17:48;;;;;;;13.77;5.65;;;;;;;10.96;100.00;101080.56;5071911;28;20030;-71
2022/06/28 01:20:14;;;;;;;10.52;6.70;;;;;;;10.96;100.00;101079.72;5064469;28;20017;-70
2022/06/28 01:22:40;;;;;;;6.40;5.25;;;;;;;10.98;100.00;101089.28;5071229;28;20115;-70
2022/06/28 01:25:08;;;;;;;6.43;5.20;;;;;;;10.92;100.00;101068.47;5057412;28;20028;-71
2022/06/28 01:27:34;;;;;;;6.78;5.47;;;;;;;10.91;100.00;101077.28;5080984;28;20505;-70
2022/06/28 01:30:01;;;;;;;7.25;5.95;;;;;;;10.94;100.00;101094.72;5086882;28;20435;-70
2022/06/28 01:32:26;;;;;;;9.18;5.30;;;;;;;10.93;100.00;101098.25;5071481;28;20098;-70
2022/06/28 01:34:52;;;;;;;8.35;5.78;;;;;;;10.78;100.00;101071.66;5083228;28;20107;-70
2022/06/28 01:37:17;;;;;;;11.35;5.60;;;;;;;10.77;100.00;101071.72;5072104;28;20056;-70
2022/06/28 01:39:42;;;;;;;7.03;5.50;;;;;;;10.72;100.00;101066.63;5077574;28;20381;-70
2022/06/28 01:42:08;;;;;;;11.43;5.28;;;;;;;10.86;100.00;101102.03;5080184;28;20032;-70
2022/06/28 01:44:34;;;;;;;8.38;5.43;;;;;;;10.71;100.00;101078.06;5071151;28;20028;-70
2022/06/28 01:47:00;;;;;;;7.85;5.13;;;;;;;10.80;100.00;101084.75;5066440;28;20034;-71
2022/06/28 01:49:25;;;;;;;7.75;4.88;;;;;;;10.73;100.00;101078.00;5080271;28;20025;-70
2022/06/28 01:51:51;;;;;;;7.38;4.47;;;;;;;10.71;100.00;101075.44;5069776;28;20047;-70
2022/06/28 01:54:16;;;;;;;10.00;4.38;;;;;;;10.58;100.00;101066.31;5084373;28;20028;-69
2022/06/28 01:56:43;;;;;;;6.45;4.57;;;;;;;10.70;100.00;101089.50;5074636;28;20039;-70
2022/06/28 01:59:08;;;;;;;7.50;4.30;;;;;;;10.61;100.00;101078.50;5069129;28;20025;-70
2022/06/28 02:01:34;;;;;;;5.72;4.30;;;;;;;10.58;100.00;101092.59;5087869;28;20027;-70
2022/06/28 02:03:59;;;;;;;5.07;3.65;;;;;;;10.67;100.00;101104.53;5078536;28;20025;-70
2022/06/28 02:06:25;;;;;;;7.00;4.25;;;;;;;10.42;100.00;101061.72;5084847;28;20028;-70
2022/06/28 02:08:50;;;;;;;5.68;4.43;;;;;;;10.35;100.00;101060.25;5078545;28;20066;-70
2022/06/28 02:11:15;;;;;;;12.77;3.75;;;;;;;10.54;100.00;101092.81;5087830;28;20039;-70
2022/06/28 02:13:41;;;;;;;5.40;4.13;;;;;;;10.63;100.00;101103.81;5080518;28;20111;-70
2022/06/28 02:16:06;;;;;;;7.28;3.92;;;;;;;10.66;100.00;101108.94;5080965;28;20115;-70
2022/06/28 02:18:32;;;;;;;5.40;4.05;;;;;;;10.65;100.00;101101.97;5080168;28;20040;-70
2022/06/28 02:20:58;;;;;;;10.18;3.85;;;;;;;10.66;100.00;101102.81;5080232;28;20076;-69
2022/06/28 02:23:23;;;;;;;6.65;3.88;;;;;;;10.59;100.00;101090.84;5081162;28;20029;-70
2022/06/28 02:25:49;;;;;;;5.80;3.72;;;;;;;10.63;100.00;101100.31;5069608;28;20091;-69
2022/06/28 02:28:14;;;;;;;7.13;3.55;;;;;;;10.61;100.00;101105.63;5081500;28;20060;-69
2022/06/28 02:30:39;;;;;;;9.23;4.28;;;;;;;10.62;100.00;101109.97;5067467;28;20054;-70
2022/06/28 02:33:05;;;;;;;7.55;3.90;;;;;;;10.68;100.00;101109.72;5084306;28;20032;-71
2022/06/28 02:40:58;;;;;;;7.50;3.67;;;;;;;10.72;100.00;101108.69;5086521;28;20274;-69
2022/06/28 02:43:24;;;;;;;8.50;3.85;;;;;;;10.61;100.00;101102.16;5067029;28;20111;-69
2022/06/28 02:45:49;;;;;;;6.03;3.42;;;;;;;10.67;100.00;101117.69;5086929;28;20065;-70
2022/06/28 02:48:15;;;;;;;9.23;3.95;;;;;;;10.65;100.00;101116.88;5055481;28;20413;-70
2022/06/28 02:50:40;;;;;;;6.50;3.63;;;;;;;10.57;100.00;101114.56;5058146;28;20025;-70
2022/06/28 02:53:05;;;;;;;5.13;3.38;;;;;;;10.59;100.00;101131.13;5074150;28;20083;-70
2022/06/28 02:55:31;;;;;;;6.22;3.60;;;;;;;10.52;100.00;101131.41;5071578;28;20033;-70
2022/06/28 02:57:56;;;;;;;7.05;3.38;;;;;;;10.49;100.00;101127.13;5086565;28;20028;-70
2022/06/28 03:00:22;;;;;;;4.45;3.40;;;;;;;10.40;100.00;101121.38;5074569;28;20168;-70
2022/06/28 03:02:48;;;;;;;5.25;2.85;;;;;;;10.40;100.00;101138.00;5067702;28;20060;-69
2022/06/28 03:05:16;;;;;;;7.43;3.22;;;;;;;10.31;100.00;101140.13;5068709;28;20029;-70
2022/06/28 03:07:42;;;;;;;6.60;3.50;;;;;;;10.31;100.00;101146.19;5076116;28;20076;-70
2022/06/28 03:10:08;;;;;;;7.03;3.95;;;;;;;10.15;100.00;101129.28;5076264;28;20016;-70
2022/06/28 03:12:34;;;;;;;4.68;2.95;;;;;;;10.27;100.00;101152.50;5072145;28;20047;-70
2022/06/28 03:14:59;;;;;;;7.25;3.08;;;;;;;10.29;100.00;101160.31;5077721;28;20371;-70
2022/06/28 03:17:25;;;;;;;5.38;3.10;;;;;;;10.20;100.00;101146.63;5073883;28;20498;-71
2022/06/28 03:19:50;;;;;;;5.20;3.38;;;;;;;10.20;100.00;101151.88;5091787;28;20020;-71
2022/06/28 03:22:16;;;;;;;5.82;3.10;;;;;;;10.12;100.00;101143.38;5058210;28;20027;-70
2022/06/28 03:24:41;;;;;;;11.05;3.40;;;;;;;10.12;100.00;101148.63;5080965;28;20535;-69
2022/06/28 03:27:07;;;;;;;5.82;3.47;;;;;;;10.17;100.00;101165.09;5076782;28;20024;-69
2022/06/28 03:29:32;;;;;;;5.47;3.33;;;;;;;9.90;100.00;101131.91;5069450;28;20059;-69
2022/06/28 03:31:58;;;;;;;6.32;3.20;;;;;;;10.01;100.00;101155.16;5046128;28;20715;-70
2022/06/28 03:34:23;;;;;;;6.45;3.63;;;;;;;10.10;100.00;101173.22;5061518;28;20037;-69
2022/06/28 03:36:50;;;;;;;6.10;3.55;;;;;;;10.04;100.00;101178.69;5081224;28;20103;-69
2022/06/28 03:39:16;;;;;;;6.63;3.33;;;;;;;10.02;100.00;101186.63;5082390;28;20043;-69
2022/06/28 03:41:41;;;;;;;6.15;3.30;;;;;;;9.84;100.00;101158.38;5090866;28;20036;-69
2022/06/28 03:44:06;;;;;;;11.05;3.53;;;;;;;9.88;100.00;101167.88;5081899;28;20541;-69
2022/06/28 03:46:32;;;;;;;6.82;4.10;;;;;;;9.85;100.00;101182.88;5082713;28;20062;-69
2022/06/28 03:48:57;;;;;;;4.20;2.85;;;;;;;9.72;100.00;101175.44;5072436;28;20078;-69
2022/06/28 03:51:23;;;;;;;4.68;3.50;;;;;;;9.62;100.00;101162.66;5072774;28;20467;-70
2022/06/28 03:53:48;;;;;;;5.53;3.30;;;;;;;9.76;100.00;101191.94;5049110;28;20023;-70
2022/06/28 03:56:14;;;;;;;6.68;3.88;;;;;;;9.77;100.00;101194.47;5068283;28;20490;-70
2022/06/28 03:58:39;;;;;;;4.57;3.13;;;;;;;9.66;100.00;101180.03;5054553;28;20044;-70
2022/06/28 04:01:05;;;;;;;6.45;4.00;;;;;;;9.69;100.00;101190.41;5079339;28;20032;-71
2022/06/28 04:03:30;;;;;;;7.20;3.80;;;;;;;9.66;100.00;101174.78;5086231;28;20057;-70
2022/06/28 04:05:56;;;;;;;6.10;3.95;;;;;;;9.69;100.00;101169.41;5064636;28;20471;-70
2022/06/28 04:08:21;;;;;;;9.25;3.80;;;;;;;9.84;100.00;101184.63;5064395;28;20033;-70
2022/06/28 04:10:47;;;;;;;13.80;4.85;;;;;;;9.84;100.00;101179.38;5064401;28;20036;-70
2022/06/28 04:13:12;;;;;;;8.57;4.57;;;;;;;9.86;100.00;101177.56;5055379;28;20021;-70
2022/06/28 04:15:38;;;;;;;11.00;4.70;;;;;;;9.96;100.00;101189.47;5057028;28;20025;-70
2022/06/28 04:18:04;;;;;;;11.07;4.68;;;;;;;9.92;100.00;101189.63;5058497;28;20027;-70
2022/06/28 04:20:30;;;;;;;8.45;5.20;;;;;;;9.99;100.00;101175.38;5058523;28;20464;-70
2022/06/28 04:22:55;;;;;;;6.40;5.20;;;;;;;10.04;100.00;101176.91;5062099;28;20070;-70
2022/06/28 04:25:21;;;;;;;11.13;5.85;;;;;;;10.10;100.00;101183.72;5083234;28;20119;-70
2022/06/28 04:27:46;;;;;;;6.72;4.97;;;;;;;10.17;100.00;101188.72;5069917;28;20383;-71
2022/06/28 04:30:12;;;;;;;7.35;4.70;;;;;;;10.25;100.00;101189.31;5090542;28;20091;-71
2022/06/28 04:32:37;;;;;;;8.43;4.75;;;;;;;10.30;100.00;101196.19;5067465;28;20045;-69
2022/06/28 04:35:04;;;;;;;8.00;4.93;;;;;;;10.27;100.00;101189.28;5075881;28;20068;-70
2022/06/28 04:37:29;;;;;;;9.25;5.35;;;;;;;10.35;100.00;101197.72;5065394;28;20035;-70
2022/06/28 04:39:54;;;;;;;9.82;4.88;;;;;;;10.36;100.00;101194.19;5081930;28;20156;-70
2022/06/28 04:42:20;;;;;;;8.93;5.43;;;;;;;10.39;100.00;101190.56;5059524;28;20864;-70
2022/06/28 04:44:45;;;;;;;9.13;5.68;;;;;;;10.52;100.00;101197.09;5070331;28;20550;-70
2022/06/28 04:47:11;;;;;;;7.10;5.00;;;;;;;10.55;100.00;101202.22;5084287;28;20039;-70
2022/06/28 04:49:37;;;;;;;10.30;5.38;;;;;;;10.61;100.00;101199.41;5085245;28;20013;-70
2022/06/28 04:52:03;;;;;;;11.80;6.25;;;;;;;10.52;100.00;101178.69;5056521;28;20387;-70
2022/06/28 04:54:28;;;;;;;13.52;5.70;;;;;;;10.78;100.00;101210.97;5083899;28;20020;-70
2022/06/28 04:56:54;;;;;;;13.55;6.28;;;;;;;10.83;100.00;101199.44;5072180;28;20066;-70
2022/06/28 04:59:19;;;;;;;10.57;5.97;;;;;;;10.88;100.00;101189.59;5071216;28;20028;-70
2022/06/28 05:01:45;;;;;;;14.27;6.50;;;;;;;11.00;100.00;101191.75;5060984;28;20132;-69
2022/06/28 05:04:10;;;;;;;10.85;5.32;;;;;;;11.17;100.00;101205.97;5070264;28;20028;-70
2022/06/28 05:06:36;;;;;;;8.80;4.82;;;;;;;11.23;100.00;101202.22;5082061;28;20489;-69
2022/06/28 05:09:01;;;;;;;6.40;4.20;;;;;;;11.32;100.00;101203.63;5064610;28;20395;-69
2022/06/28 05:11:28;;;;;;;9.60;4.78;;;;;;;11.41;100.00;101208.50;5060177;28;20035;-70
2022/06/28 05:13:54;;;;;;;7.50;4.03;;;;;;;11.48;100.00;101204.72;5089722;28;20028;-70
2022/06/28 05:16:20;;;;;;;8.23;3.78;;;;;;;11.50;100.00;101197.59;5067975;28;20028;-70
2022/06/28 05:18:45;;;;;;;7.10;3.70;;;;;;;11.54;100.00;101193.94;5074273;28;20085;-70
2022/06/28 05:21:11;;;;;;;12.40;3.85;;;;;;;11.73;100.00;101202.81;5056737;28;20409;-70
2022/06/28 05:23:37;;;;;;;5.45;2.80;;;;;;;11.79;100.00;101199.94;5046866;28;20063;-70
2022/06/28 05:26:03;;;;;;;10.15;3.92;;;;;;;11.75;100.00;101177.28;5084168;28;20048;-70
2022/06/28 05:28:28;;;;;;;5.38;2.90;;;;;;;11.85;100.00;101183.00;5076124;28;20040;-70
2022/06/28 05:30:54;;;;;;;11.32;3.42;;;;;;;11.88;100.00;101170.56;5053946;28;20471;-70
2022/06/28 05:33:19;;;;;;;12.27;3.92;;;;;;;12.11;100.00;101193.25;5074780;28;20024;-70
2022/06/28 05:35:45;;;;;;;5.30;2.92;;;;;;;12.15;100.00;101182.53;5085027;28;20024;-70
2022/06/28 05:38:10;;;;;;;6.85;3.40;;;;;;;12.03;100.00;101148.81;5060317;28;20074;-70
2022/06/28 05:40:36;;;;;;;7.93;3.92;;;;;;;12.32;100.00;101180.94;5070300;28;20110;-70
2022/06/28 05:43:01;;;;;;;7.32;3.92;;;;;;;12.15;100.00;101144.78;5078881;28;20370;-70
2022/06/28 05:45:26;;;;;;;6.28;3.60;;;;;;;12.38;100.00;101181.50;5080543;28;20020;-70
2022/06/28 05:47:52;;;;;;;8.38;3.95;;;;;;;12.44;100.00;101170.69;5075327;28;20061;-70
2022/06/28 05:50:19;;;;;;;7.15;3.70;;;;;;;12.60;100.00;101170.84;5074820;28;20021;-70
2022/06/28 05:52:45;;;;;;;5.32;2.92;;;;;;;12.64;100.00;101160.06;5084293;28;20024;-69
2022/06/28 05:55:10;;;;;;;10.25;3.30;;;;;;;12.80;100.00;101170.78;5069127;28;20492;-70
2022/06/28 05:57:36;;;;;;;8.88;3.30;;;;;;;12.91;100.00;101160.56;5061368;28;20130;-70
2022/06/28 06:00:01;;;;;;;5.90;2.75;;;;;;;12.81;100.00;101138.19;5064306;28;20081;-70
2022/06/28 06:02:27;;;;;;;6.70;3.15;;;;;;;13.08;100.00;101168.53;5064542;28;20111;-69
2022/06/28 06:04:54;;;;;;;4.72;2.40;;;;;;;13.12;100.00;101156.94;5085174;28;20039;-70
2022/06/28 06:07:20;;;;;;;7.20;2.72;;;;;;;13.24;100.00;101172.19;5060997;28;20074;-70
2022/06/28 06:09:45;;;;;;;6.80;2.28;;;;;;;13.23;100.00;101159.06;5069138;28;20036;-71
2022/06/28 06:12:10;;;;;;;9.63;2.92;;;;;;;13.41;100.00;101173.13;5058064;28;20024;-70
2022/06/28 06:14:36;;;;;;;5.43;2.15;;;;;;;13.46;100.00;101186.94;5033203;28;20931;-70
2022/06/28 06:17:01;;;;;;;5.50;1.92;;;;;;;13.46;100.00;101169.31;5030105;28;20025;-70
2022/06/28 06:19:27;;;;;;;4.22;1.73;;;;;;;13.55;100.00;101170.66;5033449;28;20020;-70
2022/06/28 06:21:52;;;;;;;9.00;2.15;;;;;;;13.64;100.00;101175.47;5077142;28;20525;-70
2022/06/28 06:24:18;;;;;;;4.03;1.50;;;;;;;13.76;100.00;101188.06;5062046;28;20027;-70
2022/06/28 06:26:44;;;;;;;5.65;1.70;;;;;;;13.73;100.00;101177.66;5076194;28;20028;-70
2022/06/28 06:29:09;;;;;;;5.05;1.75;;;;;;;13.68;100.00;101161.19;5058499;28;20713;-70
2022/06/28 06:31:35;;;;;;;9.32;1.98;;;;;;;13.86;100.00;101185.81;5087847;28;20032;-71
2022/06/28 06:34:00;;;;;;;4.40;1.90;;;;;;;13.85;100.00;101184.97;5066694;28;20103;-71
2022/06/28 06:36:26;;;;;;;6.15;2.10;;;;;;;13.98;100.00;101198.41;5070006;28;20493;-71
2022/06/28 06:38:51;;;;;;;4.55;1.27;;;;;;;13.96;100.00;101182.59;5057539;28;20035;-71
2022/06/28 06:41:17;;;;;;;4.03;1.55;;;;;;;13.74;100.00;101145.03;5086263;28;20481;-71
2022/06/28 06:43:42;;;;;;;4.20;1.48;;;;;;;13.88;100.00;101155.75;5088560;28;20393;-71
2022/06/28 06:46:07;;;;;;;6.13;2.13;;;;;;;14.16;100.00;101192.16;5087077;28;20036;-70
2022/06/28 06:48:33;;;;;;;5.20;2.20;;;;;;;14.03;100.00;101170.78;5084375;28;20114;-71
2022/06/28 06:50:58;;;;;;;4.45;1.70;;;;;;;14.15;100.00;101180.75;5072279;28;20028;-70
2022/06/28 06:53:23;;;;;;;3.67;1.63;;;;;;;14.17;100.00;101176.22;5081658;28;20024;-71
2022/06/28 06:55:49;;;;;;;5.22;1.63;;;;;;;14.37;100.00;101198.13;5059193;28;20527;-71
2022/06/28 06:58:15;;;;;;;3.45;1.45;;;;;;;14.41;100.00;101197.03;5064217;28;20020;-71
2022/06/28 07:00:41;;;;;;;5.30;1.60;;;;;;;14.43;100.00;101188.06;5088921;28;20454;-71
2022/06/28 07:03:06;;;;;;;7.50;1.50;;;;;;;14.56;100.00;101201.53;5064573;28;20020;-71
2022/06/28 07:05:32;;;;;;;5.07;1.67;;;;;;;14.48;100.00;101193.13;5078460;28;20093;-71
2022/06/28 07:07:57;;;;;;;4.88;2.00;;;;;;;14.58;100.00;101197.00;5080933;28;20083;-71
2022/06/28 07:10:23;;;;;;;5.30;1.48;;;;;;;14.59;100.00;101188.13;5079656;28;20029;-71
2022/06/28 07:12:49;;;;;;;3.50;1.25;;;;;;;14.63;100.00;101190.50;5088553;28;20108;-71
2022/06/28 07:15:14;;;;;;;3.97;1.40;;;;;;;14.61;100.00;101181.81;5074787;28;20394;-71
2022/06/28 07:17:39;;;;;;;4.40;1.75;;;;;;;14.67;100.00;101188.53;5088147;28;20068;-70
2022/06/28 07:20:06;;;;;;;3.33;1.52;;;;;;;14.60;100.00;101166.03;5074656;28;20111;-70
2022/06/28 07:22:32;;;;;;;4.55;1.58;;;;;;;14.81;100.00;101191.28;5081181;28;20151;-71
2022/06/28 07:24:59;;;;;;;6.63;1.90;;;;;;;14.81;100.00;101175.41;5073872;28;20546;-72
2022/06/28 07:27:25;;;;;;;9.20;2.30;;;;;;;14.85;100.00;101179.59;5074328;28;20429;-70
2022/06/28 07:29:50;;;;;;;4.38;1.75;;;;;;;14.92;100.00;101178.34;5085019;28;20032;-71
2022/06/28 07:32:16;;;;;;;2.78;1.58;;;;;;;14.76;100.00;101132.50;5072459;28;20031;-71
2022/06/28 07:34:41;;;;;;;4.63;1.20;;;;;;;15.09;100.00;101177.38;5049106;28;20028;-71
2022/06/28 07:37:07;;;;;;;4.85;1.23;;;;;;;15.14;100.00;101164.75;5064708;28;20086;-71
2022/06/28 07:39:32;;;;;;;5.07;1.70;;;;;;;15.30;100.00;101174.41;5090485;28;20055;-72
2022/06/28 07:41:58;;;;;;;6.22;1.30;;;;;;;15.41;100.00;101178.22;5082971;28;20039;-71
2022/06/28 07:44:23;;;;;;;4.53;1.67;;;;;;;15.45;100.00;101185.03;5068322;28;20054;-71
2022/06/28 07:46:49;;;;;;;9.68;2.28;;;;;;;15.48;100.00;101184.88;5068933;28;20024;-70
2022/06/28 07:49:14;;;;;;;3.25;1.30;;;;;;;15.56;100.00;101182.66;5069644;28;20028;-71
2022/06/28 07:54:23;;;;;;;4.68;1.70;;;;;;;15.57;100.00;101168.47;5086668;28;20295;-72
2022/06/28 07:56:48;;;;;;;7.88;1.48;;;;;;;15.63;100.00;101168.09;5071112;28;20541;-72
2022/06/28 07:59:14;;;;;;;3.78;1.20;;;;;;;15.69;100.00;101175.69;5076417;28;20027;-71
2022/06/28 08:01:39;;;;;;;4.63;1.25;;;;;;;15.76;100.00;101174.38;5075913;28;20020;-71
2022/06/28 08:04:05;;;;;;;4.70;1.30;;;;;;;15.90;100.00;101182.38;5076508;28;20418;-71
2022/06/28 08:06:30;;;;;;;4.75;1.30;;;;;;;15.99;100.00;101181.81;5077754;28;20024;-71
2022/06/28 08:08:55;;;;;;;4.57;1.55;;;;;;;15.86;100.00;101143.72;5049354;28;20044;-71
2022/06/28 08:11:21;;;;;;;7.45;1.92;;;;;;;16.15;100.00;101185.28;5061467;28;20032;-72
2022/06/28 08:13:48;;;;;;;4.88;1.92;;;;;;;16.21;100.00;101173.44;5064972;28;20047;-71
2022/06/28 08:16:13;;;;;;;5.78;1.83;;;;;;;16.02;100.00;101128.59;5056789;28;20054;-72
2022/06/28 08:18:39;;;;;;;7.80;1.90;;;;;;;16.36;100.00;101175.97;5076113;28;20029;-72
2022/06/28 08:21:05;;;;;;;8.95;2.28;;;;;;;16.42;100.00;101174.78;5076900;28;20103;-72
2022/06/28 08:23:30;;;;;;;9.20;2.58;;;;;;;16.45;100.00;101163.09;5060484;28;20027;-72
2022/06/28 08:25:56;;;;;;;4.53;1.95;;;;;;;16.57;100.00;101165.00;5084895;28;20032;-71
2022/06/28 08:28:21;;;;;;;4.97;2.10;;;;;;;16.59;100.00;101144.56;5084545;28;20024;-71
2022/06/28 08:30:47;;;;;;;5.15;1.98;;;;;;;16.80;100.00;101153.78;5033566;28;20469;-71
2022/06/28 08:33:13;;;;;;;4.72;2.15;;;;;;;16.95;100.00;101157.28;5065843;28;20020;-70
2022/06/28 08:35:38;;;;;;;5.63;2.00;;;;;;;16.99;100.00;101141.06;5053671;28;20025;-72
2022/06/28 08:38:07;;;;;;;11.07;2.20;;;;;;;17.13;100.00;101143.66;5087540;28;20032;-72
2022/06/28 08:40:35;;;;;;;3.85;1.98;;;;;;;16.97;100.00;101097.81;5072843;28;20099;-71
2022/06/28 08:43:01;;;;;;;5.65;2.28;;;;;;;17.40;100.00;101153.44;5058603;28;20079;-72
2022/06/28 08:45:28;;;;;;;8.45;2.47;;;;;;;17.33;100.00;101126.41;5069033;28;20466;-71
2022/06/28 08:47:55;;;;;;;20.90;2.40;;;;;;;17.42;100.00;101136.41;5083440;28;20051;-71
2022/06/28 08:50:32;;;;;;;5.88;2.42;;;;;;;17.26;100.00;101104.72;5066875;28;20501;-71
2022/06/28 08:53:00;;;;;;;6.97;2.08;;;;;;;17.48;100.00;101125.38;5077554;28;20124;-71
2022/06/28 08:55:25;;;;;;;4.97;1.92;;;;;;;17.49;100.00;101118.25;5072111;28;20028;-71
2022/06/28 08:57:52;;;;;;;4.28;1.63;;;;;;;17.68;100.00;101132.03;5060945;28;20444;-72
2022/06/28 09:00:18;;;;;;;6.30;1.90;;;;;;;17.73;100.00;101140.56;5043511;28;20055;-72
2022/06/28 09:02:43;;;;;;;3.03;1.55;;;;;;;17.72;100.00;101123.75;5081455;28;20031;-72
2022/06/28 09:05:09;;;;;;;4.63;2.03;;;;;;;17.85;100.00;101131.72;5074840;28;20113;-72
2022/06/28 09:07:35;;;;;;;5.20;1.40;;;;;;;17.89;100.00;101141.22;5071926;28;20040;-71
2022/06/28 09:10:00;;;;;;;3.60;1.40;;;;;;;17.83;100.00;101123.03;5047273;28;20032;-71
2022/06/28 09:12:25;;;;;;;6.28;1.80;;;;;;;17.91;100.00;101123.34;5089021;28;20047;-72
2022/06/28 09:14:51;;;;;;;5.45;1.30;;;;;;;18.02;100.00;101128.75;5089982;28;20031;-72
2022/06/28 09:17:29;;;;;;;3.95;1.23;;;;;;;18.08;100.00;101124.84;5067961;28;20029;-71
2022/06/28 09:20:00;;;;;;;2.35;1.00;;;;;;;18.14;100.00;101116.44;5081062;28;20038;-72
2022/06/28 09:22:36;;;;;;;2.70;1.23;;;;;;;18.27;100.00;101114.59;5054094;28;20166;-71
2022/06/28 09:25:05;;;;;;;2.58;1.25;;;;;;;18.29;100.00;101123.31;5083176;28;20028;-72
2022/06/28 09:27:34;;;;;;;4.45;1.55;;;;;;;18.34;100.00;101122.06;5072262;28;20056;-71
2022/06/28 09:30:00;;;;;;;2.95;1.00;;;;;;;18.32;100.00;101102.66;5085050;28;20120;-72
2022/06/28 09:32:36;;;;;;;2.22;1.20;;;;;;;18.39;100.00;101109.25;5046191;28;20044;-71
2022/06/28 09:35:04;;;;;;;3.22;1.20;;;;;;;18.36;100.00;101104.16;5079097;28;20078;-70
2022/06/28 09:37:41;;;;;;;5.05;1.23;;;;;;;18.49;100.00;101109.44;5059063;28;20032;-71
2022/06/28 09:40:20;;;;;;;3.40;1.38;;;;;;;18.53;100.00;101116.28;5080541;28;20466;-71
2022/06/28 09:43:03;;;;;;;3.25;1.08;;;;;;;18.44;100.00;101085.00;5053443;28;20501;-71
2022/06/28 09:45:29;;;;;;;2.83;1.10;;;;;;;18.49;100.00;101095.28;5084583;28;20462;-71
2022/06/28 09:47:55;;;;;;;2.85;1.10;;;;;;;18.58;100.00;101100.00;5073161;28;20112;-71
2022/06/28 09:50:20;;;;;;;5.10;1.52;;;;;;;18.62;100.00;101106.81;5074190;28;20025;-72
2022/06/28 09:52:46;;;;;;;3.90;1.50;;;;;;;18.64;100.00;101096.88;5101298;28;20032;-72
2022/06/28 09:55:14;;;;;;;3.60;1.15;;;;;;;18.82;100.00;101085.72;5050688;28;20402;-72
2022/06/28 09:57:46;;;;;;;7.95;1.52;;;;;;;18.98;100.00;101089.94;5077015;28;20041;-72
2022/06/28 10:00:16;;;;;;;6.65;1.58;;;;;;;19.10;100.00;101079.22;5073902;28;20139;-72
2022/06/28 10:02:42;;;;;;;5.97;1.73;;;;;;;19.18;100.00;101071.50;5057411;28;20044;-72
2022/06/28 10:05:09;;;;;;;6.55;2.20;;;;;;;19.32;100.00;101073.13;5086367;28;20035;-72
2022/06/28 10:07:34;;;;;;;2.67;1.02;;;;;;;19.51;100.00;101083.25;5092960;28;20474;-72
2022/06/28 10:10:00;;;;;;;4.15;1.52;;;;;;;19.26;100.00;101014.97;5085812;28;20039;-72
2022/06/28 10:15:19;;;;;;;6.97;1.30;;;;;;;19.70;100.00;101051.56;5067913;28;20039;-71
2022/06/28 10:18:04;;;;;;;5.13;1.55;;;;;;;20.01;100.00;101072.19;5076019;28;20028;-72
2022/06/28 10:20:36;;;;;;;6.47;1.98;;;;;;;20.13;100.00;101071.25;5038476;28;20029;-71
2022/06/28 10:23:41;;;;;;;2.85;1.17;;;;;;;20.02;100.00;101041.88;5070443;28;20500;-71
2022/06/28 10:26:15;;;;;;;4.85;1.50;;;;;;;20.30;100.00;101064.59;5094453;28;20055;-72
2022/06/28 10:28:44;;;;;;;6.63;1.48;;;;;;;20.39;100.00;101056.69;5092024;28;20047;-72
2022/06/28 10:31:25;;;;;;;4.65;1.33;;;;;;;20.66;100.00;101042.06;5066780;28;20021;-72
2022/06/28 10:33:51;;;;;;;5.15;1.60;;;;;;;20.78;100.00;101041.06;5075913;28;20043;-71
2022/06/28 10:36:19;;;;;;;4.45;1.80;;;;;;;20.78;100.00;101041.06;5068944;28;20032;-72
2022/06/28 10:39:08;;;;;;;3.28;1.75;;;;;;;20.85;100.00;101026.25;5085179;28;20020;-72
2022/06/28 10:41:51;;;;;;;3.40;1.50;;;;;;;20.83;100.00;101038.84;5094671;28;20028;-72
2022/06/28 10:44:26;;;;;;;6.88;2.10;;;;;;;20.81;100.00;101031.00;5079367;28;20041;-72
2022/06/28 10:47:00;;;;;;;5.03;2.00;;;;;;;21.18;100.00;101028.78;5061622;28;20470;-71
2022/06/28 10:49:27;;;;;;;3.97;1.92;;;;;;;21.42;100.00;100992.91;5088747;28;20039;-71
2022/06/28 10:52:10;;;;;;;3.00;1.27;;;;;;;21.71;100.00;101015.31;5067319;28;20097;-71
2022/06/28 10:54:37;;;;;;;3.45;1.40;;;;;;;21.71;100.00;101024.19;5082428;28;20494;-72
2022/06/28 10:57:22;;;;;;;6.32;1.90;;;;;;;21.61;100.00;101022.44;5078476;28;20032;-71
2022/06/28 10:59:50;;;;;;;14.43;1.50;;;;;;;21.44;100.00;101004.31;5067645;28;20051;-71
2022/06/28 11:02:16;;;;;;;6.40;1.92;;;;;;;21.52;100.00;101009.88;5060569;28;20073;-71
2022/06/28 11:04:41;;;;;;;5.38;1.70;;;;;;;21.66;100.00;101009.53;5088674;28;20031;-72
2022/06/28 11:07:24;;;;;;;5.60;1.58;;;;;;;21.75;100.00;101000.69;5067080;28;20485;-72
2022/06/28 11:09:49;;;;;;;7.13;1.52;;;;;;;21.87;100.00;101000.47;5092940;28;20087;-71
2022/06/28 11:12:17;;;;;;;4.83;1.93;;;;;;;22.01;100.00;101001.97;5079508;28;20051;-71
2022/06/28 11:14:50;;;;;;;3.40;1.40;;;;;;;22.25;100.00;100991.75;5067070;28;20271;-71
2022/06/28 11:17:19;;;;;;;5.05;1.58;;;;;;;22.44;100.00;100992.78;5089718;28;20027;-71
2022/06/28 11:19:56;;;;;;;7.32;1.50;;;;;;;22.47;100.00;100982.66;5092423;28;20157;-72
2022/06/28 11:22:27;;;;;;;7.35;2.05;;;;;;;22.45;100.00;100939.06;5076372;28;20033;-71
2022/06/28 11:24:54;;;;;;;4.15;1.83;;;;;;;22.82;97.42;100971.41;5055731;28;20197;-72
2022/06/28 11:27:20;;;;;;;5.22;2.00;;;;;;;23.01;98.83;100974.09;5079513;28;20051;-72
2022/06/28 11:29:46;;;;;;;4.03;1.42;;;;;;;23.16;89.83;100964.59;5073970;28;20056;-71